Mountain House, California
Current Conditions -  °F | °C
As of 5:53 PM on Tuesday 21 Oct 2014 (Local Time) from KLVK Reporting Station
Clear Clear  
Wind Chill: 66°   Ceiling: Unl
Heat Index: 66°   Visibility: 10mi
Dew Point: 48°   Wind: 14mph
Humidity: 52%   Direction: 270°W
Pressure: 30"   Gusts: NA
Location:  37.7582°N, 121.525°W
Report Text: KLVK 220053Z 27012KT 10SM CLR 19/09 A3000 RMK AO2 SLP158 T01890089
Loading
Personal Weather Stations






























Interactive Weather Map
Tropical Storm Tracking
New forecast layout! Learn more

10-Day Weather Forecast

Advertisements
Track Severe Weather on mobile